Terminal Aerodrome Forecast
Issued by NWS Lake Charles, LA

Home | Current Version | Previous Version | Text Only | Print | Product List | Glossary On
Versions: 1 2 3 4 5 6 7 8 9 10 11 12 13 14 15 16 17 18
000
FTUS44 KLCH 262340
TAFLCH
TAF
KLCH 262340Z 2700/2724 15005KT P6SM SCT022 BKN070
     FM270300 12005KT P6SM BKN030 OVC070
     FM270600 10012KT P6SM VCSH BKN007 OVC030
     FM270900 07008KT 6SM BR VCSH BKN004 OVC007
      TEMPO 2710/2714 4SM -SHRA OVC025
     FM271400 09016G24KT 6SM SHRA VCTS OVC025CB
      TEMPO 2714/2717 VRB25G40KT 1/2SM +TSRA OVC005CB
     FM271700 VRB10G20KT 2SM +TSRA BR SCT007 OVC020CB
     FM272100 08008KT P6SM VCTS BKN020 OVC035CB=

USA.gov is the U.S. government's official web portal to all federal, state and local government web resources and services.